Impacts TAF Board
For situational awareness. Not to be used for flight planning purposes.
IDs:

KORD - Chicago/O'Hare Intl, IL, US

Issued at 2057 UTC 21 Sep 2021
Updated at 2322 UTC 21 Sep 2021
Potential Impact None Slight Moderate High
Time2251Z 22/00Z 22/01Z 22/02Z 22/03Z 22/04Z 22/05Z 22/06Z 22/07Z 22/08Z 22/09Z 22/10Z 22/11Z 22/12Z>>
Type OBS PRVL PRVL PRVL PRVL PRVL PRVL PRVL PRVL PRVL PRVL PRVL PRVL PRVL
VIS 10 >6 >6 >6 >6 >6 >6 >6 >6 >6 >6 >6 >6 >6
CIG 39 45 45 45 45 50 50 50 50 50 50 50 50 25
Cover OVC BKN BKN BKN BKN BKN BKN BKN BKN BKN BKN BKN BKN BKN
FltCat VFR VFR VFR VFR VFR VFR VFR VFR VFR VFR VFR VFR VFR MVFR
WX -- VCSH VCSH VCSH VCSH VCSH VCSH VCSH VCSH VCSH VCSH VCSH VCSH VCSH
WDir 10 10 10 10 10 360 360 360 360 360 360 360 360 10
WSpd 13 12 12 12 12 13 13 13 13 13 13 13 13 18
WGst -- 18 18 18 18 22 22 22 22 22 22 22 22 28
Raw TAF
KORD 212057Z 2121/2224 01012G18KT P6SM VCSH SCT030 BKN045
  FM220400 36013G22KT P6SM VCSH SCT025 BKN050
  FM221200 01018G28KT P6SM VCSH BKN025
  FM221900 36022G33KT P6SM SCT035 BKN100


Raw METAR
KORD 212251Z 01013KT 10SM FEW032 BKN039 OVC140 17/11 A3012 RMK AO2 RAE2158 SLP197 P0000 T01720106
KORD 212151Z 02016KT 10SM -RA BKN034 BKN045 OVC140 18/12 A3010 RMK AO2 RAB06E16B46 SLP189 P0000 T01780117
KORD 212051Z 35010G19KT 10SM SCT036 BKN046 OVC140 18/12 A3009 RMK AO2 SLP188 T01830117 53003

METAR Board
Radar Display
Forecast Discussion
For situational awareness. Not to be used for flight planning purposes.